Time;durP1;ratioP1;P1;durP2;ratioP2;P2;SDS_P1;SDS_P2;PMS_P1;PMS_P2;Temp;Humidity;BMP_temperature;BMP_pressure;BME280_temperature;BME280_humidity;BME280_pressure;Samples;Min_cycle;Max_cycle;Signal;HPM_P1;HPM_P2
2023/02/15 00:01:30;;;;;;;28.83;17.80;;;;;;;3.58;93.92;102931.13;4974938;28;20047;-73
2023/02/15 00:03:55;;;;;;;29.52;18.23;;;;;;;3.58;93.79;102923.34;4981062;28;20046;-73
2023/02/15 00:06:21;;;;;;;28.73;18.25;;;;;;;3.57;93.80;102918.16;4986668;28;20064;-73
2023/02/15 00:08:47;;;;;;;26.67;16.42;;;;;;;3.55;93.83;102920.72;4977724;28;20409;-73
2023/02/15 00:11:15;;;;;;;26.83;16.88;;;;;;;3.54;93.91;102913.78;4977281;28;20117;-73
2023/02/15 00:13:41;;;;;;;23.15;14.85;;;;;;;3.54;93.83;102912.91;4995591;28;20388;-73
2023/02/15 00:16:12;;;;;;;23.85;15.45;;;;;;;3.54;93.91;102907.72;4980677;28;20035;-73
2023/02/15 00:18:40;;;;;;;23.83;15.68;;;;;;;3.53;94.02;102906.84;4980123;28;20034;-73
2023/02/15 00:21:08;;;;;;;21.70;14.68;;;;;;;3.53;94.02;102895.59;5005222;28;20047;-73
2023/02/15 00:23:34;;;;;;;19.73;13.48;;;;;;;3.51;94.00;102903.38;4993456;28;20085;-73
2023/02/15 00:26:11;;;;;;;20.23;14.27;;;;;;;3.51;93.99;102897.28;4992327;28;20109;-73
2023/02/15 00:28:36;;;;;;;21.95;14.23;;;;;;;3.49;93.97;102899.84;4979381;28;20354;-73
2023/02/15 00:31:06;;;;;;;21.67;14.63;;;;;;;3.46;93.88;102892.03;4979271;28;20053;-73
2023/02/15 00:33:32;;;;;;;22.77;14.98;;;;;;;3.43;93.89;102892.81;4982572;28;20042;-73
2023/02/15 00:35:59;;;;;;;21.95;15.07;;;;;;;3.42;93.77;102887.59;4979677;28;20089;-73
2023/02/15 00:38:27;;;;;;;21.58;13.73;;;;;;;3.39;93.82;102887.56;4996498;28;20042;-72
2023/02/15 00:40:54;;;;;;;20.95;14.52;;;;;;;3.38;93.94;102888.38;4996823;28;20045;-73
2023/02/15 00:43:19;;;;;;;22.88;14.05;;;;;;;3.37;94.05;102884.91;4979266;28;20046;-73
2023/02/15 00:45:45;;;;;;;19.85;13.40;;;;;;;3.37;94.28;102890.09;4979329;28;20649;-73
2023/02/15 00:48:11;;;;;;;17.95;11.85;;;;;;;3.38;94.46;102891.84;4990197;28;20098;-73
2023/02/15 00:50:36;;;;;;;18.05;12.43;;;;;;;3.39;94.44;102891.00;4979130;28;20058;-73
2023/02/15 00:53:01;;;;;;;20.75;13.95;;;;;;;3.38;94.45;102890.97;4979454;28;20039;-73
2023/02/15 00:55:27;;;;;;;21.85;14.48;;;;;;;3.37;94.55;102887.50;4991706;28;20381;-73
2023/02/15 00:57:52;;;;;;;23.83;14.85;;;;;;;3.35;94.37;102893.50;4981353;28;20102;-73
2023/02/15 01:00:17;;;;;;;25.52;15.98;;;;;;;3.33;94.33;102885.69;4979001;28;20046;-73
2023/02/15 01:02:43;;;;;;;24.90;14.68;;;;;;;3.32;94.32;102881.34;4966333;28;20035;-73
2023/02/15 01:05:08;;;;;;;21.42;13.90;;;;;;;3.31;94.41;102879.63;4987047;28;20061;-73
2023/02/15 01:07:33;;;;;;;25.95;15.70;;;;;;;3.31;94.59;102877.03;4988746;28;20249;-73
2023/02/15 01:09:59;;;;;;;22.60;14.55;;;;;;;3.32;94.78;102868.41;4982877;28;20039;-73
2023/02/15 01:12:24;;;;;;;22.02;14.32;;;;;;;3.33;94.80;102877.03;4978595;28;20055;-73
2023/02/15 01:14:49;;;;;;;20.98;13.57;;;;;;;3.31;94.82;102877.03;4989066;28;20058;-73
2023/02/15 01:17:15;;;;;;;22.55;14.02;;;;;;;3.32;94.98;102872.72;4978325;28;20322;-73
2023/02/15 01:19:40;;;;;;;22.48;14.48;;;;;;;3.31;95.04;102874.44;4979209;28;20122;-73
2023/02/15 01:22:06;;;;;;;20.00;14.20;;;;;;;3.30;95.10;102874.41;4978996;28;20267;-73
2023/02/15 01:24:31;;;;;;;22.75;15.35;;;;;;;3.30;94.99;102866.63;4988750;28;20068;-73
2023/02/15 01:26:56;;;;;;;19.88;13.52;;;;;;;3.27;94.98;102867.41;4990118;28;20049;-73
2023/02/15 01:29:22;;;;;;;23.90;14.52;;;;;;;3.25;94.98;102863.91;4981000;28;20040;-73
2023/02/15 01:31:47;;;;;;;23.63;15.63;;;;;;;3.22;95.06;102859.56;4978362;28;20054;-73
2023/02/15 01:34:13;;;;;;;22.55;14.30;;;;;;;3.22;94.93;102861.25;4978396;28;20046;-73
2023/02/15 01:36:38;;;;;;;21.98;14.05;;;;;;;3.18;94.87;102868.06;4996051;28;20042;-73
2023/02/15 01:39:03;;;;;;;24.20;15.15;;;;;;;3.16;94.83;102863.72;4982124;28;20042;-73
2023/02/15 01:41:29;;;;;;;19.33;13.38;;;;;;;3.12;94.86;102857.59;4983180;28;20057;-73
2023/02/15 01:43:59;;;;;;;20.40;14.25;;;;;;;3.11;94.86;102853.28;5001882;28;20034;-73
2023/02/15 01:46:34;;;;;;;22.23;14.75;;;;;;;3.08;94.72;102848.88;4998269;28;20078;-73
2023/02/15 01:49:05;;;;;;;20.95;13.98;;;;;;;3.06;94.69;102842.81;4986245;28;20038;-73
2023/02/15 01:51:34;;;;;;;22.08;14.23;;;;;;;3.04;94.68;102841.91;4997575;28;20349;-73
2023/02/15 01:54:16;;;;;;;25.60;14.68;;;;;;;3.02;94.64;102841.00;4982051;28;20261;-73
2023/02/15 01:56:42;;;;;;;20.73;14.27;;;;;;;3.01;94.70;102834.06;4985999;28;20047;-73
2023/02/15 01:59:15;;;;;;;21.83;14.00;;;;;;;2.99;94.63;102835.75;4997530;28;20038;-73
2023/02/15 02:01:40;;;;;;;20.25;12.75;;;;;;;2.99;94.78;102832.28;4978588;28;20031;-73
2023/02/15 02:04:29;;;;;;;20.85;13.55;;;;;;;2.96;94.75;102834.78;4969354;28;20076;-73
2023/02/15 02:06:57;;;;;;;18.65;13.13;;;;;;;2.95;94.81;102833.94;4999000;28;20080;-73
2023/02/15 02:09:22;;;;;;;21.75;13.30;;;;;;;2.94;94.80;102820.94;4996040;28;20045;-73
2023/02/15 02:11:49;;;;;;;23.27;13.82;;;;;;;2.91;94.73;102823.44;4981405;28;20082;-73
2023/02/15 02:14:16;;;;;;;20.48;13.65;;;;;;;2.88;94.68;102824.28;4984112;28;20038;-73
2023/02/15 02:16:58;;;;;;;18.80;12.48;;;;;;;2.87;94.57;102819.91;4997864;28;20038;-73
2023/02/15 02:19:42;;;;;;;16.98;12.02;;;;;;;2.84;94.72;102815.56;4984141;28;20034;-73
2023/02/15 02:22:49;;;;;;;15.40;10.70;;;;;;;2.84;94.69;102818.16;5000305;28;20045;-73
2023/02/15 02:25:33;;;;;;;15.70;10.90;;;;;;;2.83;94.83;102812.94;4988627;28;20350;-73
2023/02/15 02:28:27;;;;;;;16.08;11.00;;;;;;;2.82;94.78;102806.00;4981884;28;20443;-73
2023/02/15 02:31:44;;;;;;;15.15;11.13;;;;;;;2.81;94.90;102805.13;4995642;28;20042;-73
2023/02/15 02:34:30;;;;;;;13.93;10.38;;;;;;;2.79;94.85;102799.03;4981141;28;20463;-73
2023/02/15 02:37:07;;;;;;;14.32;10.75;;;;;;;2.78;94.92;102799.88;4969862;28;20085;-73
2023/02/15 02:39:54;;;;;;;13.60;10.23;;;;;;;2.76;94.86;102798.97;4996526;28;20048;-73
2023/02/15 02:42:29;;;;;;;12.95;11.27;;;;;;;2.75;95.00;102792.06;4980852;28;20389;-73
2023/02/15 02:45:05;;;;;;;15.18;11.13;;;;;;;2.74;95.06;102792.03;4985888;28;20049;-73
2023/02/15 02:47:39;;;;;;;13.45;10.55;;;;;;;2.73;95.08;102782.50;4991331;28;20030;-73
2023/02/15 02:50:12;;;;;;;14.13;11.10;;;;;;;2.72;95.18;102779.03;4982034;28;20250;-73
2023/02/15 02:52:47;;;;;;;14.18;10.43;;;;;;;2.73;95.30;102782.50;4980540;28;20060;-73
2023/02/15 02:55:28;;;;;;;17.05;11.20;;;;;;;2.72;95.34;102776.47;4989833;28;20330;-73
2023/02/15 02:58:00;;;;;;;15.07;11.48;;;;;;;2.72;95.39;102775.59;4990463;28;20022;-73
2023/02/15 03:00:30;;;;;;;15.80;11.43;;;;;;;2.71;95.46;102769.56;4992208;28;20034;-73
2023/02/15 03:03:06;;;;;;;14.88;11.32;;;;;;;2.71;95.61;102776.41;4979562;28;20329;-73
2023/02/15 03:05:34;;;;;;;14.82;10.55;;;;;;;2.69;95.51;102778.97;4982153;28;20044;-73
2023/02/15 03:08:05;;;;;;;19.92;12.63;;;;;;;2.67;95.56;102775.47;4988710;28;20038;-73
2023/02/15 03:10:34;;;;;;;15.00;11.30;;;;;;;2.67;95.67;102771.19;4980651;28;20042;-73
2023/02/15 03:13:00;;;;;;;17.80;12.38;;;;;;;2.66;95.48;102771.16;4980451;28;20326;-73
2023/02/15 03:18:24;;;;;;;18.02;12.35;;;;;;;2.63;95.70;102768.50;4986403;28;20045;-73
2023/02/15 03:20:52;;;;;;;18.58;13.23;;;;;;;2.62;95.69;102764.13;4980663;28;20033;-73
2023/02/15 03:23:22;;;;;;;17.33;12.23;;;;;;;2.60;95.74;102755.47;4980489;28;20361;-73
2023/02/15 03:26:01;;;;;;;19.63;13.50;;;;;;;2.59;95.86;102748.56;4994150;28;20034;-73
2023/02/15 03:28:41;;;;;;;21.33;13.13;;;;;;;2.59;95.85;102743.41;4985650;28;20038;-72
2023/02/15 03:31:09;;;;;;;18.75;12.40;;;;;;;2.59;95.88;102748.56;5000599;28;20030;-73
2023/02/15 03:33:39;;;;;;;18.83;12.43;;;;;;;2.58;95.93;102746.81;4986775;28;20053;-73
2023/02/15 03:36:18;;;;;;;16.83;12.15;;;;;;;2.58;96.12;102747.66;4993396;28;20033;-73
2023/02/15 03:38:51;;;;;;;;;;;;;;;2.56;96.05;102753.66;4986067;28;20338;-73
2023/02/15 03:41:19;;;;;;;17.75;12.32;;;;;;;2.56;96.06;102745.91;4996985;28;20272;-73
2023/02/15 03:43:56;;;;;;;18.15;11.43;;;;;;;2.54;96.15;102743.28;4983827;28;20089;-73
2023/02/15 03:46:50;;;;;;;18.65;12.43;;;;;;;2.54;96.14;102748.44;4980582;28;20365;-73
2023/02/15 03:49:34;;;;;;;16.65;11.50;;;;;;;2.53;96.16;102740.66;4960084;28;20101;-73
2023/02/15 03:52:01;;;;;;;15.55;11.13;;;;;;;2.52;96.15;102738.91;4982712;28;20344;-73
2023/02/15 03:54:42;;;;;;;16.33;11.73;;;;;;;2.50;96.27;102733.72;4998668;28;20045;-73
2023/02/15 04:02:56;;;;;;;17.33;12.00;;;;;;;2.46;96.44;102724.13;4979021;28;20034;-73
2023/02/15 04:05:21;;;;;;;17.67;11.25;;;;;;;2.44;96.45;102721.50;4979474;28;20039;-73
2023/02/15 04:07:47;;;;;;;14.98;11.15;;;;;;;2.43;96.47;102714.56;4991042;28;20070;-73
2023/02/15 04:12:56;;;;;;;18.25;12.38;;;;;;;2.43;96.51;102706.81;4982025;28;20050;-73
2023/02/15 04:18:05;;;;;;;16.75;12.20;;;;;;;2.43;96.64;102718.88;4984725;28;20079;-73
2023/02/15 04:25:58;;;;;;;21.50;12.98;;;;;;;2.42;96.84;102705.09;4979682;28;20045;-73
2023/02/15 04:28:24;;;;;;;15.30;11.00;;;;;;;2.41;96.84;102703.31;4979072;28;20046;-73
2023/02/15 04:30:49;;;;;;;17.38;11.95;;;;;;;2.42;96.93;102706.78;4979645;28;20038;-73
2023/02/15 04:33:15;;;;;;;14.45;10.55;;;;;;;2.41;96.84;102708.50;4976663;28;20046;-73
2023/02/15 04:35:40;;;;;;;15.00;11.95;;;;;;;2.43;97.10;102704.22;4998963;28;20101;-73
2023/02/15 04:38:05;;;;;;;14.90;10.07;;;;;;;2.43;97.15;102711.13;4982894;28;20346;-73
2023/02/15 04:40:31;;;;;;;15.32;11.30;;;;;;;2.43;97.19;102704.22;4978890;28;20282;-73
2023/02/15 04:42:56;;;;;;;17.13;11.52;;;;;;;2.43;97.24;102704.22;4986982;28;20068;-73
2023/02/15 04:45:21;;;;;;;20.42;11.95;;;;;;;2.43;97.23;102701.66;4997778;28;20101;-73
2023/02/15 04:47:47;;;;;;;17.73;11.90;;;;;;;2.43;97.21;102701.66;4982760;28;20177;-73
2023/02/15 04:50:12;;;;;;;19.10;12.27;;;;;;;2.43;97.44;102698.19;4979676;28;20085;-73
2023/02/15 04:52:38;;;;;;;19.75;12.27;;;;;;;2.42;97.49;102694.75;4978688;28;20054;-73
2023/02/15 04:55:03;;;;;;;18.00;11.93;;;;;;;2.42;97.47;102699.91;4995252;28;20045;-73
2023/02/15 04:57:29;;;;;;;20.08;12.55;;;;;;;2.43;97.55;102699.06;4996539;28;20057;-73
2023/02/15 04:59:54;;;;;;;18.42;11.77;;;;;;;2.42;97.57;102692.16;4997142;28;20038;-73
2023/02/15 05:02:20;;;;;;;16.58;11.85;;;;;;;2.43;97.63;102693.03;4982357;28;20045;-73
2023/02/15 05:04:45;;;;;;;18.33;12.90;;;;;;;2.42;97.58;102692.16;4998370;28;20042;-73
2023/02/15 05:07:11;;;;;;;19.02;12.68;;;;;;;2.42;97.67;102696.44;5002569;28;20114;-73
2023/02/15 05:09:36;;;;;;;21.77;13.07;;;;;;;2.40;97.63;102693.84;4983897;28;20042;-73
2023/02/15 05:12:01;;;;;;;23.55;12.38;;;;;;;2.39;97.87;102689.50;4982741;28;20074;-73
2023/02/15 05:14:27;;;;;;;20.45;13.15;;;;;;;2.38;97.74;102682.56;4994295;28;20061;-73
2023/02/15 05:16:53;;;;;;;19.55;12.80;;;;;;;2.38;97.83;102676.53;5002301;28;20033;-73
2023/02/15 05:19:19;;;;;;;21.25;13.80;;;;;;;2.37;97.91;102678.25;4986875;28;20218;-73
2023/02/15 05:21:44;;;;;;;21.75;13.35;;;;;;;2.37;97.89;102674.78;4982672;28;20246;-73
2023/02/15 05:29:38;;;;;;;18.33;12.43;;;;;;;2.35;97.93;102666.09;4993691;28;20306;-73
2023/02/15 05:32:04;;;;;;;19.15;13.18;;;;;;;2.35;97.94;102673.84;4996556;28;20046;-73
2023/02/15 05:34:29;;;;;;;24.17;13.23;;;;;;;2.34;98.06;102667.81;4984766;28;20069;-73
2023/02/15 05:36:54;;;;;;;18.98;13.10;;;;;;;2.34;98.08;102665.22;4982612;28;20053;-73
2023/02/15 05:39:20;;;;;;;20.05;12.75;;;;;;;2.32;98.15;102659.16;4989685;28;20058;-73
2023/02/15 05:41:45;;;;;;;23.58;13.48;;;;;;;2.33;98.27;102660.03;5002080;28;20046;-73
2023/02/15 05:44:11;;;;;;;22.13;13.15;;;;;;;2.32;98.28;102654.00;4984724;28;20043;-73
2023/02/15 05:46:36;;;;;;;19.50;12.43;;;;;;;2.32;98.41;102656.56;4982142;28;20042;-74
2023/02/15 05:49:01;;;;;;;21.17;13.82;;;;;;;2.32;98.06;102655.72;4986140;28;20339;-74
2023/02/15 05:51:27;;;;;;;20.85;13.45;;;;;;;2.33;98.38;102657.44;4988839;28;20349;-73
2023/02/15 05:53:52;;;;;;;21.10;14.02;;;;;;;2.33;98.39;102660.03;4997076;28;20327;-73
2023/02/15 05:56:17;;;;;;;20.23;13.20;;;;;;;2.30;98.50;102653.94;4999550;28;20392;-73
2023/02/15 05:58:43;;;;;;;22.73;13.23;;;;;;;2.31;98.62;102660.00;4996775;28;20041;-73
2023/02/15 06:01:09;;;;;;;22.17;14.15;;;;;;;2.31;98.63;102649.66;5000927;28;20316;-73
2023/02/15 06:03:34;;;;;;;23.35;13.93;;;;;;;2.30;98.84;102653.09;4970855;28;20211;-73
2023/02/15 06:06:00;;;;;;;20.58;13.65;;;;;;;2.31;98.56;102660.00;4996578;28;20416;-73
2023/02/15 06:08:25;;;;;;;21.05;12.82;;;;;;;2.29;98.66;102651.31;4987103;28;20034;-73
2023/02/15 06:10:50;;;;;;;24.63;14.02;;;;;;;2.29;98.77;102648.72;4981939;28;20345;-73
2023/02/15 06:13:16;;;;;;;21.25;13.13;;;;;;;2.28;98.83;102647.88;4987388;28;20059;-73
2023/02/15 06:15:41;;;;;;;20.90;12.90;;;;;;;2.27;98.77;102646.16;4991808;28;20050;-74
2023/02/15 06:18:06;;;;;;;24.60;13.90;;;;;;;2.26;98.88;102652.13;4993169;28;20106;-74
2023/02/15 06:20:32;;;;;;;24.42;14.02;;;;;;;2.24;98.99;102648.66;4986017;28;20050;-74
2023/02/15 06:22:57;;;;;;;22.77;13.52;;;;;;;2.24;98.81;102650.38;4980173;28;20369;-74
2023/02/15 06:25:24;;;;;;;21.02;12.38;;;;;;;2.25;98.92;102654.69;4982172;28;20132;-74
2023/02/15 06:27:49;;;;;;;21.55;13.60;;;;;;;2.25;98.89;102663.31;4981695;28;20400;-74
2023/02/15 06:30:15;;;;;;;20.40;13.25;;;;;;;2.25;99.13;102662.44;4985924;28;20042;-74
2023/02/15 06:32:40;;;;;;;18.92;12.80;;;;;;;2.26;99.04;102661.63;4979162;28;20046;-74
2023/02/15 06:35:06;;;;;;;20.05;12.43;;;;;;;2.25;99.17;102657.28;4987040;28;20441;-74
2023/02/15 06:37:31;;;;;;;24.30;14.10;;;;;;;2.23;99.27;102656.38;4986777;28;20368;-73
2023/02/15 06:39:57;;;;;;;19.73;13.10;;;;;;;2.24;99.14;102660.72;4980404;28;20318;-74
2023/02/15 06:42:24;;;;;;;23.45;14.00;;;;;;;2.23;99.17;102652.06;4980180;28;20046;-74
2023/02/15 06:44:49;;;;;;;24.15;14.35;;;;;;;2.24;99.19;102656.41;4981491;28;20110;-74
2023/02/15 06:47:15;;;;;;;20.98;12.93;;;;;;;2.24;99.32;102645.19;4981585;28;20266;-74
2023/02/15 06:49:40;;;;;;;23.30;13.93;;;;;;;2.23;99.35;102649.47;4973186;28;20110;-74
2023/02/15 06:52:06;;;;;;;22.35;13.43;;;;;;;2.23;99.48;102646.88;4977259;28;20362;-73
2023/02/15 06:54:31;;;;;;;20.10;13.93;;;;;;;2.24;99.49;102646.06;4976903;28;20086;-74
2023/02/15 06:56:56;;;;;;;24.55;14.55;;;;;;;2.25;99.49;102644.34;4976765;28;20034;-74
2023/02/15 06:59:22;;;;;;;25.27;14.73;;;;;;;2.25;99.49;102641.75;4975433;28;20376;-74
2023/02/15 07:01:48;;;;;;;22.42;13.88;;;;;;;2.24;99.54;102647.78;4975201;28;20879;-73
2023/02/15 07:04:14;;;;;;;23.25;14.43;;;;;;;2.24;99.67;102642.63;4974886;28;20115;-73
2023/02/15 07:06:40;;;;;;;22.70;14.15;;;;;;;2.23;99.69;102640.84;4977816;28;20047;-74
2023/02/15 07:09:05;;;;;;;26.13;15.45;;;;;;;2.22;99.68;102642.56;4978339;28;20047;-74
2023/02/15 07:14:14;;;;;;;24.88;14.98;;;;;;;2.21;99.62;102634.78;4976965;28;20066;-74
2023/02/15 07:16:40;;;;;;;25.83;13.85;;;;;;;2.21;99.75;102633.06;4977011;28;20039;-74
2023/02/15 07:19:06;;;;;;;26.05;14.82;;;;;;;2.21;99.74;102639.94;4976406;28;20047;-73
2023/02/15 07:21:32;;;;;;;23.52;13.77;;;;;;;2.21;99.83;102645.13;4978125;28;20073;-73
2023/02/15 07:23:58;;;;;;;25.25;14.65;;;;;;;2.22;99.97;102636.50;4978338;28;20350;-73
2023/02/15 07:26:23;;;;;;;27.65;15.52;;;;;;;2.22;99.87;102636.50;4977326;28;20055;-73
2023/02/15 07:28:49;;;;;;;20.95;14.13;;;;;;;2.21;100.00;102633.06;4978633;28;20054;-73
2023/02/15 07:31:15;;;;;;;27.00;15.65;;;;;;;2.22;100.00;102636.50;4978469;28;20053;-73
2023/02/15 07:33:40;;;;;;;23.75;15.13;;;;;;;2.23;100.00;102633.09;4978844;28;20054;-73
2023/02/15 07:36:09;;;;;;;26.75;14.63;;;;;;;2.24;100.00;102632.28;4978734;28;20081;-73
2023/02/15 07:38:37;;;;;;;23.27;14.55;;;;;;;2.23;100.00;102626.22;4978925;28;20034;-73
2023/02/15 07:41:07;;;;;;;24.98;14.32;;;;;;;2.26;100.00;102633.19;4979737;28;20231;-73
2023/02/15 07:43:35;;;;;;;29.88;16.10;;;;;;;2.27;100.00;102632.31;4979407;28;20056;-73
2023/02/15 07:46:01;;;;;;;33.08;17.00;;;;;;;2.27;100.00;102624.56;4977259;28;20041;-73
2023/02/15 07:48:27;;;;;;;23.95;15.57;;;;;;;2.28;100.00;102626.31;4979282;28;20041;-73
2023/02/15 07:50:52;;;;;;;31.77;16.60;;;;;;;2.29;100.00;102616.03;4977114;28;20070;-73
2023/02/15 07:53:17;;;;;;;27.58;15.95;;;;;;;2.29;100.00;102618.59;4979636;28;20121;-74
2023/02/15 07:55:43;;;;;;;26.75;15.15;;;;;;;2.30;100.00;102616.88;4991104;28;20042;-74
2023/02/15 07:58:08;;;;;;;27.48;14.98;;;;;;;2.29;100.00;102616.03;4977978;28;20046;-74
2023/02/15 08:00:56;;;;;;;24.58;15.05;;;;;;;2.33;100.00;102613.47;4969407;28;20066;-73
2023/02/15 08:03:19;;;;;;;25.50;15.85;;;;;;;2.33;100.00;102606.63;4978893;28;20110;-74
2023/02/15 08:05:45;;;;;;;30.38;17.13;;;;;;;2.36;100.00;102605.81;4979522;28;20043;-74
2023/02/15 08:08:29;;;;;;;31.85;17.83;;;;;;;2.37;100.00;102608.41;4978340;28;20042;-74
2023/02/15 08:13:59;;;;;;;31.05;17.40;;;;;;;2.43;100.00;102607.69;4974406;28;20387;-73
2023/02/15 08:16:53;;;;;;;29.45;17.55;;;;;;;2.44;100.00;102605.13;4985489;28;20054;-73
2023/02/15 08:19:27;;;;;;;28.75;18.02;;;;;;;2.46;100.00;102600.84;4962809;28;20030;-73
2023/02/15 08:22:11;;;;;;;34.78;17.33;;;;;;;2.49;100.00;102603.53;4978649;28;20470;-73
2023/02/15 08:24:37;;;;;;;29.70;18.27;;;;;;;2.52;100.00;102604.41;4975350;28;20045;-73
2023/02/15 08:27:04;;;;;;;30.15;18.45;;;;;;;2.53;100.00;102599.28;4978512;28;20274;-73
2023/02/15 08:29:30;;;;;;;34.38;18.90;;;;;;;2.56;100.00;102606.22;4982901;28;20101;-73
2023/02/15 08:32:01;;;;;;;30.42;18.67;;;;;;;2.57;100.00;102601.09;4988209;28;20039;-73
2023/02/15 08:34:27;;;;;;;30.42;17.42;;;;;;;2.60;100.00;102605.44;4982496;28;20034;-73
2023/02/15 08:36:53;;;;;;;29.85;17.17;;;;;;;2.62;100.00;102596.00;4983516;28;20073;-73
2023/02/15 08:39:18;;;;;;;29.67;17.30;;;;;;;2.65;100.00;102594.34;4990291;28;20038;-73
2023/02/15 08:41:46;;;;;;;29.00;17.90;;;;;;;2.67;100.00;102596.97;4990921;28;20385;-73
2023/02/15 08:44:12;;;;;;;32.72;18.05;;;;;;;2.69;100.00;102593.59;4992010;28;20038;-73
2023/02/15 08:46:41;;;;;;;29.60;17.48;;;;;;;2.73;100.00;102601.38;4989397;28;20038;-73
2023/02/15 08:49:07;;;;;;;;;;;;;;;2.75;100.00;102603.19;4990690;28;20030;-73
2023/02/15 08:51:34;;;;;;;29.65;17.13;;;;;;;2.77;100.00;102606.66;4991132;28;19921;-73
2023/02/15 08:54:03;;;;;;;29.85;17.60;;;;;;;2.79;100.00;102606.69;4984116;28;20054;-73
2023/02/15 08:56:32;;;;;;;33.95;18.50;;;;;;;2.82;100.00;102619.69;4991372;28;20065;-73
2023/02/15 08:58:58;;;;;;;30.75;18.13;;;;;;;2.84;100.00;102605.94;4987835;28;20026;-73
2023/02/15 09:01:25;;;;;;;30.73;17.30;;;;;;;2.86;100.00;102601.66;4989721;28;20035;-73
2023/02/15 09:03:54;;;;;;;30.65;18.40;;;;;;;2.88;100.00;102597.38;4988236;28;20314;-73
2023/02/15 09:06:21;;;;;;;29.25;17.20;;;;;;;2.93;100.00;102606.94;4989223;28;20043;-73
2023/02/15 09:08:47;;;;;;;38.15;19.42;;;;;;;2.95;100.00;102615.63;4985015;28;20253;-73
2023/02/15 09:11:25;;;;;;;39.40;22.00;;;;;;;2.98;100.00;102602.75;4988202;28;20122;-73
2023/02/15 09:13:59;;;;;;;37.60;21.27;;;;;;;3.02;100.00;102608.03;4993337;28;20050;-73
2023/02/15 09:16:27;;;;;;;35.72;20.58;;;;;;;3.05;100.00;102607.19;4996245;28;20084;-73
2023/02/15 09:18:54;;;;;;;43.78;24.58;;;;;;;3.08;100.00;102609.84;4994034;28;20030;-73
2023/02/15 09:21:22;;;;;;;57.08;28.17;;;;;;;3.13;100.00;102609.91;4991151;28;20044;-73
2023/02/15 09:23:50;;;;;;;40.35;23.30;;;;;;;3.16;100.00;102603.06;4995726;28;20295;-73
2023/02/15 09:26:18;;;;;;;42.88;23.83;;;;;;;3.20;100.00;102601.41;4983837;28;20069;-73
2023/02/15 09:28:44;;;;;;;60.03;29.42;;;;;;;3.24;100.00;102608.41;4982883;28;20438;-74
2023/02/15 09:31:18;;;;;;;43.97;24.60;;;;;;;3.26;100.00;102602.41;4988552;28;20046;-73
2023/02/15 09:33:46;;;;;;;92.78;43.80;;;;;;;3.30;100.00;102597.28;4973494;28;20060;-73
2023/02/15 09:36:16;;;;;;;87.60;44.58;;;;;;;3.34;100.00;102588.72;5000861;28;20210;-73
2023/02/15 09:38:42;;;;;;;76.22;40.20;;;;;;;3.37;100.00;102592.25;4997159;28;20034;-73
2023/02/15 09:41:41;;;;;;;96.07;48.15;;;;;;;3.42;100.00;102593.19;4995954;28;20105;-73
2023/02/15 09:44:31;;;;;;;97.45;47.90;;;;;;;3.49;100.00;102594.16;5000056;28;20060;-73
2023/02/15 09:47:14;;;;;;;96.40;47.80;;;;;;;3.56;100.00;102588.22;4969681;28;20173;-73
2023/02/15 09:50:02;;;;;;;95.40;47.60;;;;;;;3.63;100.00;102589.22;4995656;28;20045;-73
2023/02/15 09:53:05;;;;;;;108.77;50.70;;;;;;;3.71;100.00;102592.81;4992508;28;20035;-73
2023/02/15 09:55:42;;;;;;;100.28;48.55;;;;;;;3.78;100.00;102589.47;4991537;28;20241;-73
2023/02/15 09:58:15;;;;;;;99.63;48.63;;;;;;;3.82;100.00;102580.00;5000556;28;20343;-73
2023/02/15 10:00:56;;;;;;;105.82;51.85;;;;;;;3.88;100.00;102587.88;5000446;28;20038;-73
2023/02/15 10:03:38;;;;;;;110.75;50.35;;;;;;;3.96;100.00;102591.44;4980875;28;20107;-73
2023/02/15 10:06:28;;;;;;;108.57;51.05;;;;;;;4.03;100.00;102589.81;4995674;28;20554;-73
2023/02/15 10:09:09;;;;;;;105.35;50.45;;;;;;;4.08;100.00;102592.50;4982956;28;20041;-73
2023/02/15 10:11:48;;;;;;;103.57;48.95;;;;;;;4.14;100.00;102587.38;4994807;28;20049;-73
2023/02/15 10:14:37;;;;;;;98.55;48.58;;;;;;;4.19;100.00;102588.31;4985738;28;20066;-73
2023/02/15 10:17:24;;;;;;;95.55;45.95;;;;;;;4.21;100.00;102594.41;4982118;28;20113;-73
2023/02/15 10:20:05;;;;;;;93.53;46.13;;;;;;;4.22;100.00;102588.34;4981494;28;20034;-73
2023/02/15 10:22:38;;;;;;;96.13;46.70;;;;;;;4.26;100.00;102590.16;4977743;28;20038;-73
2023/02/15 10:25:21;;;;;;;105.60;47.47;;;;;;;4.30;100.00;102584.16;4982762;28;20293;-73
2023/02/15 10:27:48;;;;;;;87.07;45.67;;;;;;;4.34;100.00;102585.94;4981739;28;20088;-73
2023/02/15 10:30:27;;;;;;;87.15;44.17;;;;;;;4.37;100.00;102585.97;4983957;28;20397;-73
2023/02/15 10:33:03;;;;;;;89.35;44.58;;;;;;;4.43;100.00;102578.25;4980684;28;20038;-73
2023/02/15 10:36:04;;;;;;;82.55;43.50;;;;;;;4.49;100.00;102576.59;4983929;28;20034;-73
2023/02/15 10:38:45;;;;;;;85.53;43.45;;;;;;;4.54;100.00;102573.19;4981941;28;20045;-73
2023/02/15 10:41:34;;;;;;;92.80;43.15;;;;;;;4.58;100.00;102582.78;4987468;28;20088;-73
2023/02/15 10:44:30;;;;;;;83.00;42.65;;;;;;;4.63;100.00;102580.22;5000321;28;20105;-73
2023/02/15 10:47:23;;;;;;;81.88;42.65;;;;;;;4.67;100.00;102568.16;4992040;28;20336;-73
2023/02/15 10:50:06;;;;;;;84.00;43.00;;;;;;;4.75;100.00;102571.75;4963125;28;20361;-73
2023/02/15 10:52:44;;;;;;;88.40;42.70;;;;;;;4.83;100.00;102567.47;4993704;28;20317;-73
2023/02/15 10:55:27;;;;;;;80.57;41.38;;;;;;;4.91;100.00;102554.56;4998963;28;20042;-73
2023/02/15 10:58:35;;;;;;;80.32;40.70;;;;;;;4.98;100.00;102552.09;5000556;28;20338;-73
2023/02/15 11:01:12;;;;;;;78.50;41.00;;;;;;;5.08;100.00;102546.97;4988451;28;20034;-73
2023/02/15 11:03:56;;;;;;;85.40;42.58;;;;;;;5.16;100.00;102550.50;4987657;28;20139;-73
2023/02/15 11:06:25;;;;;;;78.80;42.88;;;;;;;5.22;100.00;102549.69;4988206;28;20034;-73
2023/02/15 11:09:03;;;;;;;76.68;42.05;;;;;;;5.28;100.00;102550.63;4980967;28;20070;-73
2023/02/15 11:11:39;;;;;;;83.85;41.88;;;;;;;5.31;100.00;102548.06;4986175;28;20037;-73
2023/02/15 11:14:15;;;;;;;79.22;40.28;;;;;;;5.36;100.00;102548.06;5000083;28;20190;-73
2023/02/15 11:16:46;;;;;;;84.22;39.80;;;;;;;5.38;100.00;102552.44;4981714;28;20038;-73
2023/02/15 11:19:22;;;;;;;73.25;38.38;;;;;;;5.44;100.00;102546.41;4984169;28;20101;-73
2023/02/15 11:21:54;;;;;;;71.63;40.67;;;;;;;5.49;100.00;102543.84;4989195;28;20023;-73
2023/02/15 11:24:21;;;;;;;73.53;38.20;;;;;;;5.53;100.00;102535.19;4979795;28;20177;-73
2023/02/15 11:26:56;;;;;;;72.60;37.95;;;;;;;5.55;100.00;102538.72;4987035;28;20046;-73
2023/02/15 11:29:35;;;;;;;77.30;38.95;;;;;;;5.60;99.76;102537.00;4996277;28;20046;-73
2023/02/15 11:32:19;;;;;;;69.15;38.13;;;;;;;5.68;99.69;102534.47;4985706;28;20034;-73
2023/02/15 11:34:55;;;;;;;69.88;37.10;;;;;;;5.71;98.41;102545.75;4981909;28;20045;-73
2023/02/15 11:37:27;;;;;;;73.82;37.78;;;;;;;5.74;97.50;102544.91;4989864;28;20038;-73
2023/02/15 11:39:54;;;;;;;68.85;37.85;;;;;;;5.75;97.69;102537.13;4988152;28;20046;-73
2023/02/15 11:42:23;;;;;;;75.78;38.85;;;;;;;5.78;98.33;102531.06;4989267;28;20330;-73
2023/02/15 11:44:58;;;;;;;;;;;;;;;5.82;98.46;102534.53;4988547;28;20317;-73
2023/02/15 11:47:23;;;;;;;74.28;38.22;;;;;;;5.84;98.10;102525.00;4980571;28;19910;-73
2023/02/15 11:49:49;;;;;;;63.08;36.67;;;;;;;5.88;98.36;102513.78;4987719;28;20050;-73
2023/02/15 11:52:18;;;;;;;71.93;38.42;;;;;;;5.91;97.66;102509.47;4988132;28;20277;-73
2023/02/15 11:54:47;;;;;;;68.35;37.30;;;;;;;5.95;97.11;102513.88;4999506;28;20068;-73
2023/02/15 11:57:27;;;;;;;70.55;37.15;;;;;;;6.01;96.73;102509.56;4982929;28;20070;-73
2023/02/15 12:00:05;;;;;;;69.00;37.10;;;;;;;6.06;96.88;102500.91;4980653;28;20086;-73
2023/02/15 12:02:35;;;;;;;73.90;37.33;;;;;;;6.09;97.30;102506.13;4987856;28;20054;-73